sensor_id;sensor_type;location;lat;lon;timestamp;P1;durP1;ratioP1;P2;durP2;ratioP2
26319;SDS011;14024;52.226;5.200;2022-08-02T00:00:10;4.72;;;2.85;;
26319;SDS011;14024;52.226;5.200;2022-08-02T00:02:37;6.75;;;3.40;;
26319;SDS011;14024;52.226;5.200;2022-08-02T00:05:04;6.78;;;2.90;;
26319;SDS011;14024;52.226;5.200;2022-08-02T00:07:30;7.57;;;3.10;;
26319;SDS011;14024;52.226;5.200;2022-08-02T00:09:56;7.72;;;3.35;;
26319;SDS011;14024;52.226;5.200;2022-08-02T00:12:22;9.77;;;3.20;;
26319;SDS011;14024;52.226;5.200;2022-08-02T00:14:48;8.23;;;3.33;;
26319;SDS011;14024;52.226;5.200;2022-08-02T00:17:14;6.80;;;3.00;;
26319;SDS011;14024;52.226;5.200;2022-08-02T00:19:40;10.07;;;3.22;;
26319;SDS011;14024;52.226;5.200;2022-08-02T00:22:06;7.80;;;3.30;;
26319;SDS011;14024;52.226;5.200;2022-08-02T00:24:32;5.53;;;2.88;;
26319;SDS011;14024;52.226;5.200;2022-08-02T00:26:58;9.60;;;3.03;;
26319;SDS011;14024;52.226;5.200;2022-08-02T00:29:27;8.57;;;3.10;;
26319;SDS011;14024;52.226;5.200;2022-08-02T00:31:53;7.05;;;3.30;;
26319;SDS011;14024;52.226;5.200;2022-08-02T00:34:19;8.00;;;3.50;;
26319;SDS011;14024;52.226;5.200;2022-08-02T00:36:45;8.35;;;3.20;;
26319;SDS011;14024;52.226;5.200;2022-08-02T00:39:11;5.95;;;2.70;;
26319;SDS011;14024;52.226;5.200;2022-08-02T00:41:44;5.47;;;2.85;;
26319;SDS011;14024;52.226;5.200;2022-08-02T00:44:10;6.40;;;3.15;;
26319;SDS011;14024;52.226;5.200;2022-08-02T00:46:36;11.13;;;3.30;;
26319;SDS011;14024;52.226;5.200;2022-08-02T00:49:02;9.23;;;4.07;;
26319;SDS011;14024;52.226;5.200;2022-08-02T00:51:28;6.55;;;3.70;;
26319;SDS011;14024;52.226;5.200;2022-08-02T00:53:54;6.03;;;3.38;;
26319;SDS011;14024;52.226;5.200;2022-08-02T00:56:20;8.75;;;3.53;;
26319;SDS011;14024;52.226;5.200;2022-08-02T00:58:46;7.53;;;3.25;;
26319;SDS011;14024;52.226;5.200;2022-08-02T01:01:12;11.20;;;3.30;;
26319;SDS011;14024;52.226;5.200;2022-08-02T01:03:39;6.68;;;3.40;;
26319;SDS011;14024;52.226;5.200;2022-08-02T01:06:05;7.22;;;3.33;;
26319;SDS011;14024;52.226;5.200;2022-08-02T01:08:31;7.65;;;3.72;;
26319;SDS011;14024;52.226;5.200;2022-08-02T01:10:57;6.35;;;3.20;;
26319;SDS011;14024;52.226;5.200;2022-08-02T01:13:23;6.15;;;3.67;;
26319;SDS011;14024;52.226;5.200;2022-08-02T01:16:10;6.68;;;3.40;;
26319;SDS011;14024;52.226;5.200;2022-08-02T01:18:41;10.05;;;3.30;;
26319;SDS011;14024;52.226;5.200;2022-08-02T01:21:13;8.05;;;3.55;;
26319;SDS011;14024;52.226;5.200;2022-08-02T01:26:21;7.97;;;3.30;;
26319;SDS011;14024;52.226;5.200;2022-08-02T01:28:53;6.78;;;3.47;;
26319;SDS011;14024;52.226;5.200;2022-08-02T01:36:25;11.98;;;4.47;;
26319;SDS011;14024;52.226;5.200;2022-08-02T01:38:53;7.03;;;3.45;;
26319;SDS011;14024;52.226;5.200;2022-08-02T01:41:21;8.55;;;3.22;;
26319;SDS011;14024;52.226;5.200;2022-08-02T01:43:48;8.70;;;4.10;;
26319;SDS011;14024;52.226;5.200;2022-08-02T01:46:16;7.78;;;4.00;;
26319;SDS011;14024;52.226;5.200;2022-08-02T01:48:42;6.68;;;3.75;;
26319;SDS011;14024;52.226;5.200;2022-08-02T01:51:10;7.53;;;3.63;;
26319;SDS011;14024;52.226;5.200;2022-08-02T01:53:37;9.45;;;3.35;;
26319;SDS011;14024;52.226;5.200;2022-08-02T01:56:05;8.07;;;3.45;;
26319;SDS011;14024;52.226;5.200;2022-08-02T01:58:33;5.10;;;3.22;;
26319;SDS011;14024;52.226;5.200;2022-08-02T02:01:00;10.30;;;4.03;;
26319;SDS011;14024;52.226;5.200;2022-08-02T02:03:26;6.78;;;3.60;;
26319;SDS011;14024;52.226;5.200;2022-08-02T02:05:54;5.20;;;3.20;;
26319;SDS011;14024;52.226;5.200;2022-08-02T02:08:31;8.88;;;3.50;;
26319;SDS011;14024;52.226;5.200;2022-08-02T02:10:58;16.80;;;4.18;;
26319;SDS011;14024;52.226;5.200;2022-08-02T02:13:25;9.23;;;3.95;;
26319;SDS011;14024;52.226;5.200;2022-08-02T02:15:52;9.70;;;3.42;;
26319;SDS011;14024;52.226;5.200;2022-08-02T02:18:20;7.53;;;4.03;;
26319;SDS011;14024;52.226;5.200;2022-08-02T02:20:48;9.32;;;3.05;;
26319;SDS011;14024;52.226;5.200;2022-08-02T02:23:15;10.05;;;3.25;;
26319;SDS011;14024;52.226;5.200;2022-08-02T02:25:42;9.25;;;3.40;;
26319;SDS011;14024;52.226;5.200;2022-08-02T02:28:10;7.93;;;3.50;;
26319;SDS011;14024;52.226;5.200;2022-08-02T02:30:37;9.85;;;3.60;;
26319;SDS011;14024;52.226;5.200;2022-08-02T02:33:04;7.60;;;3.42;;
26319;SDS011;14024;52.226;5.200;2022-08-02T02:35:31;6.68;;;3.15;;
26319;SDS011;14024;52.226;5.200;2022-08-02T02:38:01;5.85;;;2.92;;
26319;SDS011;14024;52.226;5.200;2022-08-02T02:40:28;8.07;;;3.45;;
26319;SDS011;14024;52.226;5.200;2022-08-02T02:42:55;3.75;;;2.70;;
26319;SDS011;14024;52.226;5.200;2022-08-02T02:45:21;5.60;;;3.03;;
26319;SDS011;14024;52.226;5.200;2022-08-02T02:47:47;6.70;;;2.78;;
26319;SDS011;14024;52.226;5.200;2022-08-02T02:50:15;6.05;;;2.72;;
26319;SDS011;14024;52.226;5.200;2022-08-02T02:52:41;6.93;;;2.90;;
26319;SDS011;14024;52.226;5.200;2022-08-02T02:55:07;6.32;;;3.00;;
26319;SDS011;14024;52.226;5.200;2022-08-02T02:57:34;4.80;;;2.83;;
26319;SDS011;14024;52.226;5.200;2022-08-02T03:00:02;6.13;;;2.70;;
26319;SDS011;14024;52.226;5.200;2022-08-02T03:02:28;5.70;;;2.95;;
26319;SDS011;14024;52.226;5.200;2022-08-02T03:04:54;5.43;;;3.13;;
26319;SDS011;14024;52.226;5.200;2022-08-02T03:07:20;6.80;;;2.83;;
26319;SDS011;14024;52.226;5.200;2022-08-02T03:09:46;4.40;;;2.80;;
26319;SDS011;14024;52.226;5.200;2022-08-02T03:12:13;9.45;;;2.95;;
26319;SDS011;14024;52.226;5.200;2022-08-02T03:14:40;7.82;;;2.80;;
26319;SDS011;14024;52.226;5.200;2022-08-02T03:17:07;8.77;;;3.38;;
26319;SDS011;14024;52.226;5.200;2022-08-02T03:19:33;6.45;;;2.85;;
26319;SDS011;14024;52.226;5.200;2022-08-02T03:21:59;8.68;;;3.40;;
26319;SDS011;14024;52.226;5.200;2022-08-02T03:24:25;7.07;;;2.72;;
26319;SDS011;14024;52.226;5.200;2022-08-02T03:26:51;7.63;;;2.92;;
26319;SDS011;14024;52.226;5.200;2022-08-02T03:29:17;6.47;;;3.03;;
26319;SDS011;14024;52.226;5.200;2022-08-02T03:31:44;5.53;;;2.92;;
26319;SDS011;14024;52.226;5.200;2022-08-02T03:34:10;5.93;;;3.00;;
26319;SDS011;14024;52.226;5.200;2022-08-02T03:36:36;5.95;;;2.70;;
26319;SDS011;14024;52.226;5.200;2022-08-02T03:39:03;13.20;;;3.33;;
26319;SDS011;14024;52.226;5.200;2022-08-02T03:41:30;6.80;;;3.05;;
26319;SDS011;14024;52.226;5.200;2022-08-02T03:43:56;5.45;;;2.92;;
26319;SDS011;14024;52.226;5.200;2022-08-02T03:46:23;14.75;;;4.97;;
26319;SDS011;14024;52.226;5.200;2022-08-02T03:48:50;6.32;;;2.90;;
26319;SDS011;14024;52.226;5.200;2022-08-02T03:51:16;4.75;;;2.70;;
26319;SDS011;14024;52.226;5.200;2022-08-02T03:53:42;7.03;;;3.28;;
26319;SDS011;14024;52.226;5.200;2022-08-02T03:56:09;5.85;;;2.58;;
26319;SDS011;14024;52.226;5.200;2022-08-02T03:58:35;6.35;;;3.20;;
26319;SDS011;14024;52.226;5.200;2022-08-02T04:01:01;6.82;;;2.85;;
26319;SDS011;14024;52.226;5.200;2022-08-02T04:03:27;8.52;;;2.70;;
26319;SDS011;14024;52.226;5.200;2022-08-02T04:05:53;7.43;;;2.50;;
26319;SDS011;14024;52.226;5.200;2022-08-02T04:08:19;6.85;;;2.53;;
26319;SDS011;14024;52.226;5.200;2022-08-02T04:10:45;5.22;;;2.67;;
26319;SDS011;14024;52.226;5.200;2022-08-02T04:13:32;7.50;;;2.78;;
26319;SDS011;14024;52.226;5.200;2022-08-02T04:16:02;10.52;;;2.60;;
26319;SDS011;14024;52.226;5.200;2022-08-02T04:18:29;5.38;;;2.60;;
26319;SDS011;14024;52.226;5.200;2022-08-02T04:20:56;6.85;;;2.63;;
26319;SDS011;14024;52.226;5.200;2022-08-02T04:23:24;8.27;;;2.45;;
26319;SDS011;14024;52.226;5.200;2022-08-02T04:25:51;6.88;;;2.65;;
26319;SDS011;14024;52.226;5.200;2022-08-02T04:28:17;6.13;;;2.40;;
26319;SDS011;14024;52.226;5.200;2022-08-02T04:30:44;4.70;;;3.25;;
26319;SDS011;14024;52.226;5.200;2022-08-02T04:33:11;6.03;;;2.92;;
26319;SDS011;14024;52.226;5.200;2022-08-02T04:35:37;5.43;;;2.45;;
26319;SDS011;14024;52.226;5.200;2022-08-02T04:38:03;4.80;;;2.42;;
26319;SDS011;14024;52.226;5.200;2022-08-02T04:40:29;3.92;;;2.47;;
26319;SDS011;14024;52.226;5.200;2022-08-02T04:42:55;7.93;;;2.47;;
26319;SDS011;14024;52.226;5.200;2022-08-02T04:45:21;5.10;;;2.47;;
26319;SDS011;14024;52.226;5.200;2022-08-02T04:47:47;5.40;;;2.58;;
26319;SDS011;14024;52.226;5.200;2022-08-02T04:50:13;4.03;;;2.25;;
26319;SDS011;14024;52.226;5.200;2022-08-02T04:52:39;5.88;;;2.95;;
26319;SDS011;14024;52.226;5.200;2022-08-02T04:55:05;8.68;;;3.05;;
26319;SDS011;14024;52.226;5.200;2022-08-02T04:57:31;5.75;;;2.63;;
26319;SDS011;14024;52.226;5.200;2022-08-02T05:00:16;6.20;;;2.63;;
26319;SDS011;14024;52.226;5.200;2022-08-02T05:02:42;6.30;;;2.60;;
26319;SDS011;14024;52.226;5.200;2022-08-02T05:05:08;8.73;;;2.60;;
26319;SDS011;14024;52.226;5.200;2022-08-02T05:07:34;7.65;;;2.80;;
26319;SDS011;14024;52.226;5.200;2022-08-02T05:10:00;5.53;;;2.58;;
26319;SDS011;14024;52.226;5.200;2022-08-02T05:12:26;3.22;;;2.22;;
26319;SDS011;14024;52.226;5.200;2022-08-02T05:14:52;5.07;;;2.42;;
26319;SDS011;14024;52.226;5.200;2022-08-02T05:17:18;5.90;;;2.70;;
26319;SDS011;14024;52.226;5.200;2022-08-02T05:19:44;11.38;;;2.70;;
26319;SDS011;14024;52.226;5.200;2022-08-02T05:22:10;5.50;;;2.45;;
26319;SDS011;14024;52.226;5.200;2022-08-02T05:24:36;7.30;;;2.50;;
26319;SDS011;14024;52.226;5.200;2022-08-02T05:27:02;7.13;;;3.05;;
26319;SDS011;14024;52.226;5.200;2022-08-02T05:29:28;5.93;;;2.55;;
26319;SDS011;14024;52.226;5.200;2022-08-02T05:31:54;3.90;;;2.17;;
26319;SDS011;14024;52.226;5.200;2022-08-02T05:34:20;5.22;;;2.42;;
26319;SDS011;14024;52.226;5.200;2022-08-02T05:36:46;9.25;;;2.50;;
26319;SDS011;14024;52.226;5.200;2022-08-02T05:39:12;7.32;;;2.60;;
26319;SDS011;14024;52.226;5.200;2022-08-02T05:41:38;8.18;;;2.63;;
26319;SDS011;14024;52.226;5.200;2022-08-02T05:44:04;6.00;;;2.58;;
26319;SDS011;14024;52.226;5.200;2022-08-02T05:46:30;8.48;;;2.70;;
26319;SDS011;14024;52.226;5.200;2022-08-02T05:48:56;13.60;;;2.55;;
26319;SDS011;14024;52.226;5.200;2022-08-02T05:51:24;4.65;;;2.67;;
26319;SDS011;14024;52.226;5.200;2022-08-02T05:53:53;6.38;;;2.80;;
26319;SDS011;14024;52.226;5.200;2022-08-02T05:56:24;8.57;;;2.80;;
26319;SDS011;14024;52.226;5.200;2022-08-02T06:01:26;8.90;;;2.90;;
26319;SDS011;14024;52.226;5.200;2022-08-02T06:03:54;6.57;;;2.80;;
26319;SDS011;14024;52.226;5.200;2022-08-02T06:06:21;4.47;;;3.55;;
26319;SDS011;14024;52.226;5.200;2022-08-02T06:08:49;6.28;;;2.85;;
26319;SDS011;14024;52.226;5.200;2022-08-02T06:11:16;9.15;;;3.38;;
26319;SDS011;14024;52.226;5.200;2022-08-02T06:13:42;12.10;;;3.25;;
26319;SDS011;14024;52.226;5.200;2022-08-02T06:16:09;13.27;;;2.38;;
26319;SDS011;14024;52.226;5.200;2022-08-02T06:18:35;10.18;;;2.35;;
26319;SDS011;14024;52.226;5.200;2022-08-02T06:21:02;13.95;;;4.28;;
26319;SDS011;14024;52.226;5.200;2022-08-02T06:23:28;9.75;;;2.88;;
26319;SDS011;14024;52.226;5.200;2022-08-02T06:25:55;7.78;;;3.13;;
26319;SDS011;14024;52.226;5.200;2022-08-02T06:28:22;10.52;;;4.07;;
26319;SDS011;14024;52.226;5.200;2022-08-02T06:30:48;8.45;;;3.35;;
26319;SDS011;14024;52.226;5.200;2022-08-02T06:33:14;9.18;;;3.17;;
26319;SDS011;14024;52.226;5.200;2022-08-02T06:38:23;8.13;;;3.50;;
26319;SDS011;14024;52.226;5.200;2022-08-02T06:41:04;8.07;;;4.07;;
26319;SDS011;14024;52.226;5.200;2022-08-02T06:45:56;10.20;;;3.80;;
26319;SDS011;14024;52.226;5.200;2022-08-02T06:48:22;6.78;;;3.53;;
26319;SDS011;14024;52.226;5.200;2022-08-02T06:50:48;9.18;;;4.70;;
26319;SDS011;14024;52.226;5.200;2022-08-02T06:53:14;8.65;;;5.22;;
26319;SDS011;14024;52.226;5.200;2022-08-02T06:55:40;8.90;;;4.93;;
26319;SDS011;14024;52.226;5.200;2022-08-02T06:58:06;16.48;;;5.40;;
26319;SDS011;14024;52.226;5.200;2022-08-02T07:00:32;8.40;;;5.53;;
26319;SDS011;14024;52.226;5.200;2022-08-02T07:02:58;11.77;;;6.13;;
26319;SDS011;14024;52.226;5.200;2022-08-02T07:05:24;19.08;;;6.68;;
26319;SDS011;14024;52.226;5.200;2022-08-02T07:07:50;5.72;;;3.90;;
26319;SDS011;14024;52.226;5.200;2022-08-02T07:10:16;10.55;;;5.53;;
26319;SDS011;14024;52.226;5.200;2022-08-02T07:12:42;11.02;;;6.88;;
26319;SDS011;14024;52.226;5.200;2022-08-02T07:15:08;11.60;;;6.53;;
26319;SDS011;14024;52.226;5.200;2022-08-02T07:17:36;14.80;;;7.35;;
26319;SDS011;14024;52.226;5.200;2022-08-02T07:20:02;12.00;;;7.25;;
26319;SDS011;14024;52.226;5.200;2022-08-02T07:22:28;11.60;;;8.30;;
26319;SDS011;14024;52.226;5.200;2022-08-02T07:24:55;11.18;;;6.70;;
26319;SDS011;14024;52.226;5.200;2022-08-02T07:27:21;8.85;;;5.25;;
26319;SDS011;14024;52.226;5.200;2022-08-02T07:29:47;10.25;;;6.03;;
26319;SDS011;14024;52.226;5.200;2022-08-02T07:32:14;13.80;;;7.13;;
26319;SDS011;14024;52.226;5.200;2022-08-02T07:34:41;12.15;;;6.07;;
26319;SDS011;14024;52.226;5.200;2022-08-02T07:37:07;11.10;;;6.65;;
26319;SDS011;14024;52.226;5.200;2022-08-02T07:39:33;12.35;;;7.55;;
26319;SDS011;14024;52.226;5.200;2022-08-02T07:41:59;14.18;;;7.85;;
26319;SDS011;14024;52.226;5.200;2022-08-02T07:44:25;18.45;;;8.35;;
26319;SDS011;14024;52.226;5.200;2022-08-02T07:46:55;20.70;;;8.95;;
26319;SDS011;14024;52.226;5.200;2022-08-02T07:49:21;10.98;;;7.07;;
26319;SDS011;14024;52.226;5.200;2022-08-02T07:51:47;16.40;;;8.77;;
26319;SDS011;14024;52.226;5.200;2022-08-02T07:54:13;16.77;;;9.60;;
26319;SDS011;14024;52.226;5.200;2022-08-02T07:56:39;14.73;;;9.15;;
26319;SDS011;14024;52.226;5.200;2022-08-02T07:59:05;16.38;;;8.88;;
26319;SDS011;14024;52.226;5.200;2022-08-02T08:01:31;17.80;;;9.10;;
26319;SDS011;14024;52.226;5.200;2022-08-02T08:03:58;14.77;;;9.30;;
26319;SDS011;14024;52.226;5.200;2022-08-02T08:06:24;22.33;;;10.35;;
26319;SDS011;14024;52.226;5.200;2022-08-02T08:08:50;25.15;;;11.50;;
26319;SDS011;14024;52.226;5.200;2022-08-02T08:11:16;20.63;;;11.95;;
26319;SDS011;14024;52.226;5.200;2022-08-02T08:13:42;19.30;;;10.98;;
26319;SDS011;14024;52.226;5.200;2022-08-02T08:16:08;20.05;;;11.93;;
26319;SDS011;14024;52.226;5.200;2022-08-02T08:18:34;18.27;;;11.13;;
26319;SDS011;14024;52.226;5.200;2022-08-02T08:21:00;19.35;;;12.10;;
26319;SDS011;14024;52.226;5.200;2022-08-02T08:23:26;18.45;;;11.32;;
26319;SDS011;14024;52.226;5.200;2022-08-02T08:25:55;17.02;;;10.55;;
26319;SDS011;14024;52.226;5.200;2022-08-02T08:28:21;16.95;;;9.93;;
26319;SDS011;14024;52.226;5.200;2022-08-02T08:30:47;18.20;;;10.55;;
26319;SDS011;14024;52.226;5.200;2022-08-02T08:33:13;21.30;;;9.80;;
26319;SDS011;14024;52.226;5.200;2022-08-02T08:35:40;16.92;;;8.55;;
26319;SDS011;14024;52.226;5.200;2022-08-02T08:38:06;16.02;;;7.20;;
26319;SDS011;14024;52.226;5.200;2022-08-02T08:40:32;11.32;;;6.78;;
26319;SDS011;14024;52.226;5.200;2022-08-02T08:42:58;10.70;;;6.88;;
26319;SDS011;14024;52.226;5.200;2022-08-02T08:45:24;9.85;;;7.10;;
26319;SDS011;14024;52.226;5.200;2022-08-02T08:47:51;11.52;;;6.10;;
26319;SDS011;14024;52.226;5.200;2022-08-02T08:50:20;15.25;;;6.72;;
26319;SDS011;14024;52.226;5.200;2022-08-02T08:53:09;13.30;;;7.32;;
26319;SDS011;14024;52.226;5.200;2022-08-02T08:55:35;16.83;;;7.20;;
26319;SDS011;14024;52.226;5.200;2022-08-02T08:58:02;16.48;;;5.93;;
26319;SDS011;14024;52.226;5.200;2022-08-02T09:00:29;12.95;;;7.97;;
26319;SDS011;14024;52.226;5.200;2022-08-02T09:02:56;15.32;;;8.38;;
26319;SDS011;14024;52.226;5.200;2022-08-02T09:05:22;20.42;;;8.45;;
26319;SDS011;14024;52.226;5.200;2022-08-02T09:07:50;25.17;;;8.60;;
26319;SDS011;14024;52.226;5.200;2022-08-02T09:15:30;9.77;;;5.82;;
26319;SDS011;14024;52.226;5.200;2022-08-02T09:17:56;14.77;;;6.28;;
26319;SDS011;14024;52.226;5.200;2022-08-02T09:20:22;9.20;;;6.43;;
26319;SDS011;14024;52.226;5.200;2022-08-02T09:23:03;10.65;;;6.57;;
26319;SDS011;14024;52.226;5.200;2022-08-02T09:25:30;18.20;;;7.18;;
26319;SDS011;14024;52.226;5.200;2022-08-02T09:27:56;23.88;;;9.40;;
26319;SDS011;14024;52.226;5.200;2022-08-02T09:30:24;24.35;;;8.07;;
26319;SDS011;14024;52.226;5.200;2022-08-02T09:32:50;33.00;;;8.52;;
26319;SDS011;14024;52.226;5.200;2022-08-02T09:35:30;20.42;;;9.55;;
26319;SDS011;14024;52.226;5.200;2022-08-02T09:38:06;16.10;;;10.20;;
26319;SDS011;14024;52.226;5.200;2022-08-02T09:40:33;17.75;;;9.95;;
26319;SDS011;14024;52.226;5.200;2022-08-02T09:42:59;15.07;;;10.02;;
26319;SDS011;14024;52.226;5.200;2022-08-02T09:45:29;13.50;;;8.77;;
26319;SDS011;14024;52.226;5.200;2022-08-02T09:47:56;15.15;;;9.35;;
26319;SDS011;14024;52.226;5.200;2022-08-02T09:50:22;17.58;;;10.02;;
26319;SDS011;14024;52.226;5.200;2022-08-02T09:52:48;13.82;;;10.32;;
26319;SDS011;14024;52.226;5.200;2022-08-02T09:55:14;15.40;;;10.82;;
26319;SDS011;14024;52.226;5.200;2022-08-02T09:57:40;20.77;;;10.50;;
26319;SDS011;14024;52.226;5.200;2022-08-02T10:00:07;17.48;;;11.13;;
26319;SDS011;14024;52.226;5.200;2022-08-02T10:02:35;26.67;;;11.80;;
26319;SDS011;14024;52.226;5.200;2022-08-02T10:05:01;17.58;;;12.35;;
26319;SDS011;14024;52.226;5.200;2022-08-02T10:07:27;16.45;;;10.98;;
26319;SDS011;14024;52.226;5.200;2022-08-02T10:09:55;20.55;;;11.73;;
26319;SDS011;14024;52.226;5.200;2022-08-02T10:12:21;18.30;;;11.00;;
26319;SDS011;14024;52.226;5.200;2022-08-02T10:14:51;13.63;;;10.15;;
26319;SDS011;14024;52.226;5.200;2022-08-02T10:17:17;16.17;;;9.90;;
26319;SDS011;14024;52.226;5.200;2022-08-02T10:19:43;12.98;;;9.00;;
26319;SDS011;14024;52.226;5.200;2022-08-02T10:22:13;14.45;;;8.48;;
26319;SDS011;14024;52.226;5.200;2022-08-02T10:24:39;15.13;;;8.25;;
26319;SDS011;14024;52.226;5.200;2022-08-02T10:27:16;13.15;;;7.10;;
26319;SDS011;14024;52.226;5.200;2022-08-02T10:29:44;13.50;;;7.68;;
26319;SDS011;14024;52.226;5.200;2022-08-02T10:32:21;11.75;;;7.28;;
26319;SDS011;14024;52.226;5.200;2022-08-02T10:35:10;10.40;;;6.82;;
26319;SDS011;14024;52.226;5.200;2022-08-02T10:37:35;9.98;;;6.68;;
26319;SDS011;14024;52.226;5.200;2022-08-02T10:40:03;9.98;;;6.60;;
26319;SDS011;14024;52.226;5.200;2022-08-02T10:42:45;9.20;;;7.07;;
26319;SDS011;14024;52.226;5.200;2022-08-02T10:45:21;10.27;;;6.20;;
26319;SDS011;14024;52.226;5.200;2022-08-02T10:48:06;7.57;;;5.82;;
26319;SDS011;14024;52.226;5.200;2022-08-02T10:53:23;15.07;;;6.45;;
26319;SDS011;14024;52.226;5.200;2022-08-02T10:55:50;10.30;;;5.40;;
26319;SDS011;14024;52.226;5.200;2022-08-02T10:58:17;14.90;;;5.90;;
26319;SDS011;14024;52.226;5.200;2022-08-02T11:00:43;9.45;;;5.10;;
26319;SDS011;14024;52.226;5.200;2022-08-02T11:06:12;9.25;;;5.03;;
26319;SDS011;14024;52.226;5.200;2022-08-02T11:08:39;13.23;;;4.55;;
26319;SDS011;14024;52.226;5.200;2022-08-02T11:16:19;6.85;;;4.68;;
26319;SDS011;14024;52.226;5.200;2022-08-02T11:21:21;7.65;;;4.10;;
26319;SDS011;14024;52.226;5.200;2022-08-02T11:23:47;5.53;;;4.03;;
26319;SDS011;14024;52.226;5.200;2022-08-02T11:28:58;6.68;;;3.42;;
26319;SDS011;14024;52.226;5.200;2022-08-02T11:31:24;7.55;;;4.30;;
26319;SDS011;14024;52.226;5.200;2022-08-02T11:33:50;7.97;;;3.80;;
26319;SDS011;14024;52.226;5.200;2022-08-02T11:36:17;6.07;;;4.05;;
26319;SDS011;14024;52.226;5.200;2022-08-02T11:38:43;7.10;;;3.60;;
26319;SDS011;14024;52.226;5.200;2022-08-02T11:41:17;4.80;;;3.25;;
26319;SDS011;14024;52.226;5.200;2022-08-02T11:43:43;5.80;;;3.67;;
26319;SDS011;14024;52.226;5.200;2022-08-02T11:46:11;4.80;;;3.60;;
26319;SDS011;14024;52.226;5.200;2022-08-02T11:48:38;4.82;;;3.70;;
26319;SDS011;14024;52.226;5.200;2022-08-02T11:51:06;6.00;;;3.40;;
26319;SDS011;14024;52.226;5.200;2022-08-02T11:53:51;9.95;;;4.13;;
26319;SDS011;14024;52.226;5.200;2022-08-02T11:56:18;14.93;;;4.20;;
26319;SDS011;14024;52.226;5.200;2022-08-02T11:59:07;5.50;;;4.30;;
26319;SDS011;14024;52.226;5.200;2022-08-02T12:01:34;5.82;;;3.75;;
26319;SDS011;14024;52.226;5.200;2022-08-02T12:04:01;8.85;;;4.65;;
26319;SDS011;14024;52.226;5.200;2022-08-02T12:06:28;5.28;;;4.03;;
26319;SDS011;14024;52.226;5.200;2022-08-02T12:09:04;6.85;;;3.72;;
26319;SDS011;14024;52.226;5.200;2022-08-02T12:11:31;5.60;;;3.25;;
26319;SDS011;14024;52.226;5.200;2022-08-02T12:13:57;7.55;;;4.03;;
26319;SDS011;14024;52.226;5.200;2022-08-02T12:16:23;13.65;;;4.88;;
26319;SDS011;14024;52.226;5.200;2022-08-02T12:19:08;9.95;;;4.15;;
26319;SDS011;14024;52.226;5.200;2022-08-02T12:21:43;6.00;;;3.72;;
26319;SDS011;14024;52.226;5.200;2022-08-02T12:24:10;7.35;;;3.30;;
26319;SDS011;14024;52.226;5.200;2022-08-02T12:26:43;12.50;;;3.58;;
26319;SDS011;14024;52.226;5.200;2022-08-02T12:29:10;7.47;;;4.13;;
26319;SDS011;14024;52.226;5.200;2022-08-02T12:31:39;6.70;;;3.90;;
26319;SDS011;14024;52.226;5.200;2022-08-02T12:34:16;5.65;;;3.63;;
26319;SDS011;14024;52.226;5.200;2022-08-02T12:36:56;6.10;;;3.33;;
26319;SDS011;14024;52.226;5.200;2022-08-02T12:39:31;9.05;;;3.20;;
26319;SDS011;14024;52.226;5.200;2022-08-02T12:41:57;7.43;;;3.40;;
26319;SDS011;14024;52.226;5.200;2022-08-02T12:44:23;7.75;;;3.20;;
26319;SDS011;14024;52.226;5.200;2022-08-02T12:47:00;4.88;;;3.17;;
26319;SDS011;14024;52.226;5.200;2022-08-02T12:49:26;6.90;;;3.00;;
26319;SDS011;14024;52.226;5.200;2022-08-02T12:51:52;6.38;;;3.40;;
26319;SDS011;14024;52.226;5.200;2022-08-02T12:54:19;3.83;;;3.15;;
26319;SDS011;14024;52.226;5.200;2022-08-02T12:56:45;6.50;;;3.20;;
26319;SDS011;14024;52.226;5.200;2022-08-02T12:59:12;5.55;;;3.35;;
26319;SDS011;14024;52.226;5.200;2022-08-02T13:01:38;4.28;;;2.63;;
26319;SDS011;14024;52.226;5.200;2022-08-02T13:04:04;6.18;;;3.20;;
26319;SDS011;14024;52.226;5.200;2022-08-02T13:06:31;4.63;;;2.90;;
26319;SDS011;14024;52.226;5.200;2022-08-02T13:08:57;4.40;;;2.83;;
26319;SDS011;14024;52.226;5.200;2022-08-02T13:11:26;6.13;;;3.08;;
26319;SDS011;14024;52.226;5.200;2022-08-02T13:13:52;5.80;;;3.95;;
26319;SDS011;14024;52.226;5.200;2022-08-02T13:16:19;6.90;;;3.50;;
26319;SDS011;14024;52.226;5.200;2022-08-02T13:18:45;7.72;;;3.80;;
26319;SDS011;14024;52.226;5.200;2022-08-02T13:21:11;6.45;;;3.60;;
26319;SDS011;14024;52.226;5.200;2022-08-02T13:23:37;3.92;;;3.20;;
26319;SDS011;14024;52.226;5.200;2022-08-02T13:26:03;5.10;;;3.08;;
26319;SDS011;14024;52.226;5.200;2022-08-02T13:28:29;5.43;;;3.53;;
26319;SDS011;14024;52.226;5.200;2022-08-02T13:30:56;5.80;;;3.20;;
26319;SDS011;14024;52.226;5.200;2022-08-02T13:33:22;8.68;;;3.60;;
26319;SDS011;14024;52.226;5.200;2022-08-02T13:35:48;4.93;;;3.67;;
26319;SDS011;14024;52.226;5.200;2022-08-02T13:38:15;7.57;;;3.33;;
26319;SDS011;14024;52.226;5.200;2022-08-02T13:40:41;5.10;;;3.53;;
26319;SDS011;14024;52.226;5.200;2022-08-02T13:43:25;9.07;;;3.10;;
26319;SDS011;14024;52.226;5.200;2022-08-02T13:45:51;12.52;;;3.88;;
26319;SDS011;14024;52.226;5.200;2022-08-02T13:48:17;7.82;;;3.42;;
26319;SDS011;14024;52.226;5.200;2022-08-02T13:50:44;8.05;;;3.33;;
26319;SDS011;14024;52.226;5.200;2022-08-02T13:53:10;4.63;;;3.60;;
26319;SDS011;14024;52.226;5.200;2022-08-02T13:55:36;7.43;;;3.13;;
26319;SDS011;14024;52.226;5.200;2022-08-02T13:58:03;10.07;;;3.20;;
26319;SDS011;14024;52.226;5.200;2022-08-02T14:00:29;8.38;;;4.40;;
26319;SDS011;14024;52.226;5.200;2022-08-02T14:02:55;4.78;;;3.72;;
26319;SDS011;14024;52.226;5.200;2022-08-02T14:05:21;6.07;;;4.05;;
26319;SDS011;14024;52.226;5.200;2022-08-02T14:07:53;7.18;;;2.80;;
26319;SDS011;14024;52.226;5.200;2022-08-02T14:10:19;7.82;;;3.65;;
26319;SDS011;14024;52.226;5.200;2022-08-02T14:12:45;6.78;;;3.75;;
26319;SDS011;14024;52.226;5.200;2022-08-02T14:15:11;7.32;;;3.97;;
26319;SDS011;14024;52.226;5.200;2022-08-02T14:17:38;7.15;;;3.58;;
26319;SDS011;14024;52.226;5.200;2022-08-02T14:20:04;8.75;;;3.67;;
26319;SDS011;14024;52.226;5.200;2022-08-02T14:22:30;8.38;;;3.30;;
26319;SDS011;14024;52.226;5.200;2022-08-02T14:24:56;4.78;;;3.22;;
26319;SDS011;14024;52.226;5.200;2022-08-02T14:27:22;7.10;;;4.25;;
26319;SDS011;14024;52.226;5.200;2022-08-02T14:29:48;8.13;;;3.10;;
26319;SDS011;14024;52.226;5.200;2022-08-02T14:32:15;5.65;;;3.42;;
26319;SDS011;14024;52.226;5.200;2022-08-02T14:34:41;8.45;;;4.20;;
26319;SDS011;14024;52.226;5.200;2022-08-02T14:37:08;4.93;;;3.15;;
26319;SDS011;14024;52.226;5.200;2022-08-02T14:39:34;6.82;;;2.80;;
26319;SDS011;14024;52.226;5.200;2022-08-02T14:42:00;7.30;;;2.80;;
26319;SDS011;14024;52.226;5.200;2022-08-02T14:44:27;5.85;;;3.33;;
26319;SDS011;14024;52.226;5.200;2022-08-02T14:46:53;11.13;;;3.22;;
26319;SDS011;14024;52.226;5.200;2022-08-02T14:49:19;6.60;;;3.17;;
26319;SDS011;14024;52.226;5.200;2022-08-02T14:51:45;8.30;;;3.13;;
26319;SDS011;14024;52.226;5.200;2022-08-02T14:54:11;11.07;;;3.38;;
26319;SDS011;14024;52.226;5.200;2022-08-02T14:56:37;7.88;;;3.08;;
26319;SDS011;14024;52.226;5.200;2022-08-02T14:59:03;5.13;;;3.22;;
26319;SDS011;14024;52.226;5.200;2022-08-02T15:01:30;6.95;;;3.28;;
26319;SDS011;14024;52.226;5.200;2022-08-02T15:03:56;7.05;;;2.97;;
26319;SDS011;14024;52.226;5.200;2022-08-02T15:06:22;7.30;;;3.30;;
26319;SDS011;14024;52.226;5.200;2022-08-02T15:08:48;12.05;;;3.33;;
26319;SDS011;14024;52.226;5.200;2022-08-02T15:11:14;5.13;;;2.78;;
26319;SDS011;14024;52.226;5.200;2022-08-02T15:13:40;7.20;;;3.00;;
26319;SDS011;14024;52.226;5.200;2022-08-02T15:16:06;5.75;;;2.60;;
26319;SDS011;14024;52.226;5.200;2022-08-02T15:18:33;5.35;;;2.88;;
26319;SDS011;14024;52.226;5.200;2022-08-02T15:20:59;6.80;;;2.78;;